Baus, Brazil
Current Conditions -  °F | °C
As of 11:00 PM on Saturday 25 Oct 2014 (Local Time) from SBCY Reporting Station
Broken Clouds Broken Clouds  
Wind Chill: 81°   Ceiling: 10000
Heat Index: 84°   Visibility: 6mi
Dew Point: 70°   Wind: 2mph
Humidity: 70%   Direction: 340°NNW
Pressure: 29.85"   Gusts: NA
Location:  15.24°S, 57.98°W
Report Text: SBCY 260200Z 34002KT 9999 FEW020 BKN100 27/21 Q1011
Loading
Personal Weather Stations






























Interactive Weather Map
Tropical Storm Tracking
New forecast layout! Learn more

10-Day Weather Forecast

Advertisements
Track Severe Weather on mobile